createdAt,value
2019-01-31T00:02:20.465Z,14.20
2019-01-31T00:05:03.542Z,14.10
2019-01-31T00:08:00.253Z,14.67
2019-01-31T00:10:59.742Z,13.80
2019-01-31T00:13:48.883Z,14.97
2019-01-31T00:16:51.303Z,15.30
2019-01-31T00:19:31.035Z,15.27
2019-01-31T00:22:17.107Z,14.27
2019-01-31T00:25:03.067Z,14.03
2019-01-31T00:27:37.311Z,13.77
2019-01-31T00:30:29.460Z,15.67
2019-01-31T00:33:15.570Z,13.83
2019-01-31T00:35:57.965Z,13.97
2019-01-31T00:39:02.029Z,13.30
2019-01-31T00:41:36.273Z,13.87
2019-01-31T00:44:34.329Z,13.43
2019-01-31T00:47:43.177Z,13.00
2019-01-31T00:50:50.342Z,14.47
2019-01-31T00:53:36.081Z,11.73
2019-01-31T00:56:18.803Z,12.23
2019-01-31T00:58:58.898Z,12.47
2019-01-31T01:01:38.897Z,11.60
2019-01-31T01:04:53.536Z,12.03
2019-01-31T01:07:41.937Z,11.63
2019-01-31T01:10:27.168Z,11.57
2019-01-31T01:13:13.075Z,12.10
2019-01-31T01:15:59.245Z,11.73
2019-01-31T01:18:48.280Z,11.03
2019-01-31T01:21:30.628Z,10.77
2019-01-31T01:24:25.847Z,10.93
2019-01-31T01:27:19.099Z,12.13
2019-01-31T01:30:21.633Z,12.03
2019-01-31T01:33:01.497Z,12.90
2019-01-31T01:35:56.021Z,12.13
2019-01-31T01:38:50.967Z,11.80
2019-01-31T01:41:36.716Z,11.67
2019-01-31T01:44:19.863Z,12.27
2019-01-31T01:46:56.953Z,12.07
2019-01-31T01:49:46.172Z,12.13
2019-01-31T01:52:26.470Z,12.23
2019-01-31T01:55:06.308Z,12.13
2019-01-31T01:57:58.211Z,11.87
2019-01-31T02:00:35.148Z,11.90
2019-01-31T02:03:34.744Z,11.73
2019-01-31T02:06:08.989Z,11.43
2019-01-31T02:09:11.571Z,11.60
2019-01-31T02:12:06.409Z,11.17
2019-01-31T02:14:46.634Z,11.97
2019-01-31T02:17:29.442Z,12.87
2019-01-31T02:20:24.413Z,11.27
2019-01-31T02:23:10.184Z,12.87
2019-01-31T02:25:58.369Z,12.17
2019-01-31T02:28:59.330Z,11.37
2019-01-31T02:31:42.333Z,11.93
2019-01-31T02:34:46.387Z,11.27
2019-01-31T02:37:44.472Z,11.00
2019-01-31T02:40:39.361Z,11.27
2019-01-31T02:43:21.071Z,9.00
2019-01-31T02:46:20.044Z,10.03
2019-01-31T02:49:00.040Z,8.90
2019-01-31T02:51:58.126Z,9.07
2019-01-31T02:54:40.612Z,9.37
2019-01-31T02:57:35.429Z,8.97
2019-01-31T03:00:27.073Z,8.07
2019-01-31T03:03:06.786Z,8.20
2019-01-31T03:05:46.659Z,8.17
2019-01-31T03:08:23.337Z,9.13
2019-01-31T03:11:00.461Z,7.73
2019-01-31T03:13:37.512Z,7.83
2019-01-31T03:16:38.396Z,7.20
2019-01-31T03:19:36.431Z,7.00
2019-01-31T03:22:31.670Z,7.17
2019-01-31T03:25:11.649Z,7.47
2019-01-31T03:28:00.429Z,7.27
2019-01-31T03:30:50.844Z,7.23
2019-01-31T03:33:39.621Z,6.90
2019-01-31T03:36:23.192Z,6.27
2019-01-31T03:39:09.134Z,6.40
2019-01-31T03:41:43.392Z,6.80
2019-01-31T03:44:35.698Z,6.10
2019-01-31T03:47:15.438Z,6.70
2019-01-31T04:01:58.133Z,5.83
2019-01-31T04:04:50.204Z,5.97
2019-01-31T04:07:19.767Z,6.33
2019-01-31T04:09:49.228Z,5.03
2019-01-31T04:12:18.983Z,5.80
2019-01-31T04:14:52.224Z,6.40
2019-01-31T04:17:21.646Z,5.23
2019-01-31T04:19:57.178Z,5.60
2019-01-31T04:22:47.890Z,5.00
2019-01-31T04:25:20.981Z,4.90
2019-01-31T04:27:46.163Z,4.90
2019-01-31T04:30:17.286Z,5.57
2019-01-31T04:32:49.249Z,5.10
2019-01-31T04:35:20.677Z,5.10
2019-01-31T04:37:50.375Z,5.13
2019-01-31T04:40:30.953Z,4.87
2019-01-31T04:42:53.388Z,5.57
2019-01-31T04:45:34.034Z,5.33
2019-01-31T04:48:07.842Z,5.43
2019-01-31T04:50:37.751Z,5.50
2019-01-31T04:53:10.441Z,4.93
2019-01-31T04:55:51.420Z,6.23
2019-01-31T04:58:40.904Z,5.97
2019-01-31T05:01:10.693Z,5.60
2019-01-31T05:03:49.304Z,5.50
2019-01-31T05:06:25.052Z,5.63
2019-01-31T05:08:54.763Z,5.60
2019-01-31T05:11:28.245Z,5.03
2019-01-31T05:14:02.769Z,5.40
2019-01-31T05:16:33.486Z,5.63
2019-01-31T05:19:09.231Z,5.63
2019-01-31T05:21:40.769Z,5.57
2019-01-31T05:25:00.729Z,4.43
2019-01-31T05:26:48.728Z,5.40
2019-01-31T05:29:19.711Z,5.23
2019-01-31T05:31:53.246Z,4.97
2019-01-31T05:34:23.104Z,5.00
2019-01-31T05:39:51.098Z,4.80
2019-01-31T05:42:20.798Z,4.60
2019-01-31T05:44:58.919Z,5.40
2019-01-31T05:50:29.202Z,4.67
2019-01-31T05:53:04.649Z,4.67
2019-01-31T05:55:39.602Z,3.93
2019-01-31T05:58:15.610Z,4.60
2019-01-31T06:00:45.600Z,4.20
2019-01-31T06:03:49.445Z,4.10
2019-01-31T06:05:55.666Z,4.70
2019-01-31T06:08:28.066Z,4.20
2019-01-31T06:11:32.224Z,4.03
2019-01-31T06:14:43.845Z,4.50
2019-01-31T06:16:53.622Z,3.50
2019-01-31T06:19:42.400Z,3.40
2019-01-31T06:22:27.267Z,4.43
2019-01-31T06:25:39.142Z,4.00
2019-01-31T06:28:14.711Z,3.93
2019-01-31T06:34:27.789Z,3.83
2019-01-31T06:36:58.791Z,3.90
2019-01-31T06:39:40.627Z,3.90
2019-01-31T06:42:30.698Z,3.70
2019-01-31T06:47:52.460Z,3.63
2019-01-31T06:50:22.178Z,4.00
2019-01-31T06:53:04.182Z,3.70
2019-01-31T06:58:44.254Z,3.80
2019-01-31T07:02:18.681Z,4.07
2019-01-31T07:04:15.272Z,4.00
2019-01-31T07:06:54.948Z,3.43
2019-01-31T07:12:54.104Z,3.70
2019-01-31T07:15:41.709Z,3.27
2019-01-31T07:18:37.466Z,3.70
2019-01-31T07:24:43.852Z,4.10
2019-01-31T07:26:59.286Z,4.07
2019-01-31T07:29:28.996Z,4.47
2019-01-31T07:32:09.629Z,4.23
2019-01-31T07:34:55.913Z,3.53
2019-01-31T07:37:42.626Z,3.90
2019-01-31T07:40:23.669Z,3.70
2019-01-31T07:43:02.417Z,4.00
2019-01-31T07:45:46.856Z,4.03
2019-01-31T07:48:41.302Z,3.70
2019-01-31T07:51:14.982Z,3.87
2019-01-31T07:53:58.751Z,4.43
2019-01-31T08:02:28.500Z,4.67
2019-01-31T08:05:01.979Z,4.67
2019-01-31T08:07:41.136Z,4.50
2019-01-31T08:10:20.458Z,4.90
2019-01-31T08:12:50.419Z,5.17
2019-01-31T08:15:32.854Z,5.13
2019-01-31T08:18:07.177Z,5.23
2019-01-31T08:21:07.497Z,4.17
2019-01-31T08:23:29.678Z,4.23
2019-01-31T08:25:59.648Z,4.47
2019-01-31T08:28:31.520Z,3.77
2019-01-31T08:31:51.570Z,3.47
2019-01-31T08:33:34.726Z,3.13
2019-01-31T08:36:04.668Z,4.07
2019-01-31T08:38:37.273Z,2.70
2019-01-31T08:41:17.175Z,3.60
2019-01-31T08:43:51.296Z,2.80
2019-01-31T08:46:27.465Z,2.70
2019-01-31T08:48:58.691Z,2.27
2019-01-31T08:51:27.395Z,2.17
2019-01-31T08:54:04.464Z,2.17
2019-01-31T08:56:39.030Z,2.00
2019-01-31T08:59:14.721Z,2.33
2019-01-31T09:01:49.513Z,2.40
2019-01-31T09:04:26.494Z,2.40
2019-01-31T09:07:10.624Z,2.33
2019-01-31T09:09:43.741Z,2.50
2019-01-31T09:12:15.711Z,2.30
2019-01-31T09:14:59.193Z,2.60
2019-01-31T09:17:29.004Z,2.53
2019-01-31T09:20:04.820Z,2.20
2019-01-31T09:22:39.256Z,2.30
2019-01-31T09:25:34.876Z,1.97
2019-01-31T09:29:00.089Z,2.10
2019-01-31T09:32:05.732Z,2.10
2019-01-31T09:34:53.938Z,2.10
2019-01-31T09:38:04.067Z,2.70
2019-01-31T09:40:52.528Z,2.30
2019-01-31T09:43:45.387Z,1.70
2019-01-31T09:46:38.453Z,1.90
2019-01-31T09:49:33.437Z,2.27
2019-01-31T09:52:49.844Z,2.43
2019-01-31T09:55:45.579Z,2.63
2019-01-31T09:58:45.661Z,3.13
2019-01-31T10:01:54.279Z,3.60
2019-01-31T10:08:32.009Z,3.00
2019-01-31T10:11:27.306Z,2.77
2019-01-31T10:14:16.989Z,2.17
2019-01-31T10:17:01.690Z,2.50
2019-01-31T10:19:48.404Z,5.40
2019-01-31T10:22:47.949Z,4.20
2019-01-31T10:29:28.384Z,3.43
2019-01-31T10:36:17.982Z,3.23
2019-01-31T10:39:57.039Z,3.30
2019-01-31T10:42:52.037Z,3.20
2019-01-31T10:49:46.916Z,3.47
2019-01-31T10:52:52.995Z,4.07
2019-01-31T10:56:05.102Z,3.67
2019-01-31T11:06:26.685Z,4.50
2019-01-31T11:10:13.079Z,4.53
2019-01-31T11:13:14.162Z,5.47
2019-01-31T11:16:22.094Z,5.60
2019-01-31T11:19:29.072Z,5.07
2019-01-31T11:26:18.316Z,5.90
2019-01-31T11:40:10.286Z,6.47
2019-01-31T11:43:44.799Z,5.80
2019-01-31T11:47:18.968Z,8.90
2019-01-31T11:50:08.130Z,7.30
2019-01-31T11:53:08.594Z,7.63
2019-01-31T11:56:06.802Z,7.93
2019-01-31T11:59:05.504Z,7.03
2019-01-31T12:05:00.310Z,5.90
2019-01-31T12:10:48.835Z,7.20
2019-01-31T12:13:39.394Z,7.27
2019-01-31T12:21:03.145Z,7.33
2019-01-31T12:38:23.251Z,6.80
2019-01-31T12:52:33.577Z,6.43
2019-01-31T13:03:52.665Z,6.40
2019-01-31T13:25:40.678Z,8.50
2019-01-31T13:38:07.178Z,8.37
2019-01-31T13:44:53.114Z,8.30
2019-01-31T14:03:25.790Z,7.87
2019-01-31T14:13:11.808Z,8.43
2019-01-31T14:26:06.312Z,7.57
2019-01-31T14:38:43.405Z,7.43
2019-01-31T14:44:24.554Z,7.20
2019-01-31T15:06:10.796Z,7.40
2019-01-31T15:21:37.718Z,8.57
2019-01-31T15:33:05.889Z,9.37
2019-01-31T15:36:48.544Z,8.37
2019-01-31T15:55:03.714Z,9.67
2019-01-31T16:06:20.158Z,8.20
2019-01-31T16:12:06.663Z,10.63
2019-01-31T16:14:36.272Z,10.90
2019-01-31T16:17:05.924Z,12.27
2019-01-31T16:19:37.145Z,11.33
2019-01-31T16:22:07.180Z,13.83
2019-01-31T16:24:36.805Z,12.57
2019-01-31T16:27:06.609Z,13.03
2019-01-31T16:29:36.135Z,13.60
2019-01-31T16:32:06.119Z,14.67
2019-01-31T16:34:36.948Z,14.07
2019-01-31T16:37:06.421Z,13.17
2019-01-31T16:39:35.969Z,14.80
2019-01-31T16:42:05.660Z,15.03
2019-01-31T16:44:38.537Z,13.30
2019-01-31T16:47:08.143Z,13.90
2019-01-31T16:49:37.776Z,12.97
2019-01-31T16:52:07.401Z,14.83
2019-01-31T16:54:36.932Z,13.63
2019-01-31T16:57:06.492Z,14.13
2019-01-31T16:59:36.379Z,13.70
2019-01-31T17:02:07.621Z,15.40
2019-01-31T17:04:37.286Z,13.17
2019-01-31T17:07:06.901Z,14.93
2019-01-31T17:09:40.428Z,14.00
2019-01-31T17:12:10.103Z,15.03
2019-01-31T17:14:39.675Z,15.33
2019-01-31T17:17:11.289Z,15.53
2019-01-31T17:19:40.801Z,15.47
2019-01-31T17:22:11.647Z,14.57
2019-01-31T17:24:41.194Z,15.70
2019-01-31T17:27:12.452Z,14.97
2019-01-31T17:29:44.789Z,14.40
2019-01-31T17:32:13.259Z,15.17
2019-01-31T17:34:42.805Z,16.23
2019-01-31T17:37:12.349Z,14.70
2019-01-31T17:39:41.981Z,15.73
2019-01-31T17:42:11.530Z,15.97
2019-01-31T17:44:41.076Z,15.33
2019-01-31T17:47:10.630Z,14.83
2019-01-31T17:49:40.163Z,16.30
2019-01-31T17:52:09.965Z,14.87
2019-01-31T17:54:39.521Z,15.47
2019-01-31T17:57:12.587Z,14.63
2019-01-31T17:59:42.206Z,14.10
2019-01-31T18:02:11.757Z,15.40
2019-01-31T18:04:41.303Z,13.87
2019-01-31T18:07:10.832Z,14.87
2019-01-31T18:09:40.378Z,14.27
2019-01-31T18:12:09.923Z,14.63
2019-01-31T18:14:39.504Z,13.83
2019-01-31T18:17:09.096Z,13.50
2019-01-31T18:19:38.643Z,11.93
2019-01-31T18:22:08.164Z,12.37
2019-01-31T18:24:37.713Z,11.57
2019-01-31T18:27:07.264Z,11.23
2019-01-31T18:29:36.827Z,11.63
2019-01-31T18:32:06.420Z,11.50
2019-01-31T18:34:35.964Z,11.77
2019-01-31T18:37:05.646Z,11.67
2019-01-31T18:39:35.188Z,11.30
2019-01-31T18:42:04.795Z,12.20
2019-01-31T18:44:34.328Z,11.43
2019-01-31T18:47:03.866Z,10.50
2019-01-31T18:49:33.420Z,10.10
2019-01-31T18:52:02.964Z,9.73
2019-01-31T18:54:32.543Z,9.80
2019-01-31T18:57:02.085Z,8.90
2019-01-31T18:59:31.630Z,8.67
2019-01-31T19:02:01.220Z,9.00
2019-01-31T19:04:31.024Z,8.63
2019-01-31T19:07:00.554Z,9.13
2019-01-31T19:09:30.103Z,9.77
2019-01-31T19:11:59.642Z,9.07
2019-01-31T19:14:29.190Z,9.73
2019-01-31T19:16:58.806Z,11.33
2019-01-31T19:19:28.355Z,11.20
2019-01-31T19:21:57.886Z,11.43
2019-01-31T19:24:27.447Z,11.33
2019-01-31T19:26:57.852Z,10.77
2019-01-31T19:29:27.942Z,10.80
2019-01-31T19:31:59.090Z,9.50
2019-01-31T19:34:28.617Z,10.03
2019-01-31T19:36:58.161Z,9.93
2019-01-31T19:39:27.701Z,10.23
2019-01-31T19:41:57.243Z,9.63
2019-01-31T19:44:26.786Z,8.83
2019-01-31T19:46:56.451Z,8.43
2019-01-31T19:49:25.986Z,8.33
2019-01-31T19:51:56.616Z,8.73
2019-01-31T19:54:26.148Z,9.00
2019-01-31T19:56:55.700Z,8.10
2019-01-31T19:59:25.247Z,9.13
2019-01-31T20:01:54.773Z,8.30
2019-01-31T20:04:24.320Z,7.43
2019-01-31T20:06:55.032Z,8.30
2019-01-31T20:09:25.703Z,9.10
2019-01-31T20:11:55.235Z,10.00
2019-01-31T20:14:24.799Z,8.57
2019-01-31T20:16:54.387Z,9.33
2019-01-31T20:19:23.939Z,8.67
2019-01-31T20:21:53.795Z,9.13
2019-01-31T20:24:23.334Z,8.67
2019-01-31T20:26:53.408Z,9.30
2019-01-31T20:29:22.946Z,9.47
2019-01-31T20:31:52.493Z,11.63
2019-01-31T20:34:22.034Z,9.67
2019-01-31T20:36:51.574Z,8.53
2019-01-31T20:39:21.353Z,8.17
2019-01-31T20:41:54.462Z,8.70
2019-01-31T20:44:22.150Z,8.30
2019-01-31T20:46:51.689Z,7.87
2019-01-31T20:49:21.235Z,7.33
2019-01-31T20:51:50.793Z,8.03
2019-01-31T20:54:20.414Z,9.13
2019-01-31T20:56:51.182Z,6.93
2019-01-31T20:59:20.889Z,7.27
2019-01-31T21:01:52.056Z,8.90
2019-01-31T21:04:21.620Z,7.67
2019-01-31T21:06:51.118Z,7.97
2019-01-31T21:09:20.654Z,7.80
2019-01-31T21:11:51.001Z,7.87
2019-01-31T21:14:21.492Z,8.07
2019-01-31T21:16:52.134Z,7.57
2019-01-31T21:19:21.776Z,7.43
2019-01-31T21:21:51.326Z,8.60
2019-01-31T21:24:20.866Z,7.30
2019-01-31T21:26:50.408Z,8.20
2019-01-31T21:29:19.941Z,7.43
2019-01-31T21:31:49.596Z,7.43
2019-01-31T21:34:19.103Z,8.30
2019-01-31T21:36:48.638Z,12.87
2019-01-31T21:39:18.253Z,10.47
2019-01-31T21:41:47.807Z,10.50
2019-01-31T21:44:17.348Z,10.33
2019-01-31T21:46:46.918Z,10.20
2019-01-31T21:49:16.467Z,10.10
2019-01-31T21:51:46.024Z,10.23
2019-01-31T21:54:15.617Z,10.60
2019-01-31T21:56:45.207Z,10.23
2019-01-31T21:59:14.757Z,10.77
2019-01-31T22:01:44.298Z,11.17
2019-01-31T22:04:13.862Z,11.00
2019-01-31T22:06:43.399Z,10.10
2019-01-31T22:09:13.013Z,10.80
2019-01-31T22:11:42.574Z,10.87
2019-01-31T22:14:12.096Z,9.87
2019-01-31T22:16:41.731Z,10.23
2019-01-31T22:19:11.284Z,10.37
2019-01-31T22:21:40.821Z,11.40
2019-01-31T22:24:10.380Z,10.07
2019-01-31T22:26:39.938Z,8.33
2019-01-31T22:29:09.626Z,8.67
2019-01-31T22:31:39.134Z,8.47
2019-01-31T22:34:08.684Z,9.43
2019-01-31T22:36:38.971Z,10.10
2019-01-31T22:39:09.537Z,9.47
2019-01-31T22:41:39.071Z,10.63
2019-01-31T22:44:08.641Z,10.77
2019-01-31T22:46:38.182Z,10.13
2019-01-31T22:49:07.731Z,10.33
2019-01-31T22:51:37.708Z,9.90
2019-01-31T22:54:07.418Z,8.97
2019-01-31T22:56:36.966Z,8.87
2019-01-31T22:59:06.519Z,9.97
2019-01-31T23:01:38.008Z,9.17
2019-01-31T23:04:07.693Z,9.77
2019-01-31T23:06:37.505Z,9.90
2019-01-31T23:09:09.239Z,9.73
2019-01-31T23:11:38.891Z,8.53
2019-01-31T23:14:08.502Z,8.50
2019-01-31T23:16:38.313Z,8.00
2019-01-31T23:19:08.100Z,8.80
2019-01-31T23:21:37.639Z,8.60
2019-01-31T23:24:07.466Z,9.27
2019-01-31T23:26:36.990Z,8.60
2019-01-31T23:29:06.670Z,9.37
2019-01-31T23:31:36.225Z,8.20
2019-01-31T23:34:06.301Z,8.20
2019-01-31T23:36:36.093Z,8.10
2019-01-31T23:39:08.891Z,8.50
2019-01-31T23:41:38.516Z,9.00
2019-01-31T23:44:08.130Z,8.27
2019-01-31T23:46:37.724Z,6.83
2019-01-31T23:49:07.541Z,8.43
2019-01-31T23:51:37.646Z,7.43
2019-01-31T23:54:07.436Z,9.17
2019-01-31T23:56:36.981Z,9.20
2019-01-31T23:59:06.857Z,8.67
